sensor_id;sensor_type;location;lat;lon;timestamp;pressure;altitude;pressure_sealevel;temperature;humidity
9415;BME280;4746;35.664;139.738;2023-08-08T00:00:36;99644.19;;;38.27;44.77
9415;BME280;4746;35.664;139.738;2023-08-08T00:03:04;99642.13;;;38.29;44.79
9415;BME280;4746;35.664;139.738;2023-08-08T00:05:33;99643.09;;;38.36;44.90
9415;BME280;4746;35.664;139.738;2023-08-08T00:08:00;99632.63;;;38.49;44.47
9415;BME280;4746;35.664;139.738;2023-08-08T00:10:28;99638.59;;;38.59;44.46
9415;BME280;4746;35.664;139.738;2023-08-08T00:12:55;99638.94;;;38.56;44.15
9415;BME280;4746;35.664;139.738;2023-08-08T00:15:24;99643.59;;;38.62;43.68
9415;BME280;4746;35.664;139.738;2023-08-08T00:17:54;99641.94;;;38.61;43.48
9415;BME280;4746;35.664;139.738;2023-08-08T00:20:21;99645.63;;;38.60;43.07
9415;BME280;4746;35.664;139.738;2023-08-08T00:22:49;99648.59;;;38.65;42.53
9415;BME280;4746;35.664;139.738;2023-08-08T00:25:18;99651.22;;;38.73;42.57
9415;BME280;4746;35.664;139.738;2023-08-08T00:27:46;99644.66;;;38.75;41.93
9415;BME280;4746;35.664;139.738;2023-08-08T00:30:13;99652.63;;;38.83;41.70
9415;BME280;4746;35.664;139.738;2023-08-08T00:32:44;99643.88;;;38.89;41.51
9415;BME280;4746;35.664;139.738;2023-08-08T00:35:17;99649.03;;;38.91;41.60
9415;BME280;4746;35.664;139.738;2023-08-08T00:37:55;99649.28;;;39.03;40.93
9415;BME280;4746;35.664;139.738;2023-08-08T00:40:23;99651.78;;;39.05;40.23
9415;BME280;4746;35.664;139.738;2023-08-08T00:42:50;99651.25;;;39.09;40.06
9415;BME280;4746;35.664;139.738;2023-08-08T00:45:23;99656.88;;;39.14;39.76
9415;BME280;4746;35.664;139.738;2023-08-08T00:47:59;99651.88;;;39.11;39.56
9415;BME280;4746;35.664;139.738;2023-08-08T00:50:33;99650.88;;;39.12;39.86
9415;BME280;4746;35.664;139.738;2023-08-08T00:53:08;99650.31;;;39.17;39.56
9415;BME280;4746;35.664;139.738;2023-08-08T00:55:35;99661.22;;;39.15;38.97
9415;BME280;4746;35.664;139.738;2023-08-08T00:58:16;99657.78;;;39.21;38.92
9415;BME280;4746;35.664;139.738;2023-08-08T01:00:43;99660.41;;;39.29;38.20
9415;BME280;4746;35.664;139.738;2023-08-08T01:03:11;99665.03;;;39.35;38.25
9415;BME280;4746;35.664;139.738;2023-08-08T01:05:58;99655.00;;;39.52;38.77
9415;BME280;4746;35.664;139.738;2023-08-08T01:08:39;99654.44;;;39.56;38.64
9415;BME280;4746;35.664;139.738;2023-08-08T01:11:07;99656.94;;;39.58;38.21
9415;BME280;4746;35.664;139.738;2023-08-08T01:13:40;99654.44;;;39.71;37.91
9415;BME280;4746;35.664;139.738;2023-08-08T01:16:26;99654.91;;;39.88;37.59
9415;BME280;4746;35.664;139.738;2023-08-08T01:18:55;99647.72;;;39.95;36.58
9415;BME280;4746;35.664;139.738;2023-08-08T01:21:27;99645.19;;;40.08;36.61
9415;BME280;4746;35.664;139.738;2023-08-08T01:24:23;99646.44;;;40.27;36.32
9415;BME280;4746;35.664;139.738;2023-08-08T01:26:55;99637.28;;;40.21;36.75
9415;BME280;4746;35.664;139.738;2023-08-08T01:29:35;99633.19;;;40.25;36.42
9415;BME280;4746;35.664;139.738;2023-08-08T01:32:04;99624.50;;;40.23;36.09
9415;BME280;4746;35.664;139.738;2023-08-08T01:34:39;99632.09;;;40.34;36.37
9415;BME280;4746;35.664;139.738;2023-08-08T01:37:34;99630.09;;;40.43;36.22
9415;BME280;4746;35.664;139.738;2023-08-08T01:40:06;99625.63;;;40.49;36.15
9415;BME280;4746;35.664;139.738;2023-08-08T01:42:37;99628.41;;;40.62;35.63
9415;BME280;4746;35.664;139.738;2023-08-08T01:45:10;99622.00;;;40.63;35.45
9415;BME280;4746;35.664;139.738;2023-08-08T01:47:38;99624.09;;;40.61;35.83
9415;BME280;4746;35.664;139.738;2023-08-08T01:50:15;99619.91;;;40.59;35.85
9415;BME280;4746;35.664;139.738;2023-08-08T01:52:43;99621.63;;;40.46;35.63
9415;BME280;4746;35.664;139.738;2023-08-08T01:55:15;99618.94;;;40.46;35.44
9415;BME280;4746;35.664;139.738;2023-08-08T01:57:46;99613.81;;;40.50;35.66
9415;BME280;4746;35.664;139.738;2023-08-08T02:00:29;99609.16;;;40.59;35.88
9415;BME280;4746;35.664;139.738;2023-08-08T02:02:57;99608.38;;;40.65;35.12
9415;BME280;4746;35.664;139.738;2023-08-08T02:05:26;99606.28;;;40.60;35.45
9415;BME280;4746;35.664;139.738;2023-08-08T02:08:03;99603.97;;;40.57;35.33
9415;BME280;4746;35.664;139.738;2023-08-08T02:10:37;99610.38;;;40.56;34.70
9415;BME280;4746;35.664;139.738;2023-08-08T02:13:13;99598.34;;;40.52;35.41
9415;BME280;4746;35.664;139.738;2023-08-08T02:15:41;99606.50;;;40.38;34.86
9415;BME280;4746;35.664;139.738;2023-08-08T02:18:08;99603.16;;;40.36;35.07
9415;BME280;4746;35.664;139.738;2023-08-08T02:20:38;99599.41;;;40.31;35.09
9415;BME280;4746;35.664;139.738;2023-08-08T02:23:05;99589.38;;;40.25;34.83
9415;BME280;4746;35.664;139.738;2023-08-08T02:25:33;99588.00;;;40.29;35.36
9415;BME280;4746;35.664;139.738;2023-08-08T02:31:18;99595.41;;;40.47;34.43
9415;BME280;4746;35.664;139.738;2023-08-08T02:33:51;99596.69;;;40.72;34.42
9415;BME280;4746;35.664;139.738;2023-08-08T02:36:19;99602.16;;;40.85;34.22
9415;BME280;4746;35.664;139.738;2023-08-08T02:38:46;99600.41;;;40.99;33.78
9415;BME280;4746;35.664;139.738;2023-08-08T02:41:14;99602.38;;;41.11;32.98
9415;BME280;4746;35.664;139.738;2023-08-08T02:43:42;99601.44;;;41.25;32.87
9415;BME280;4746;35.664;139.738;2023-08-08T02:46:09;99594.47;;;41.37;32.89
9415;BME280;4746;35.664;139.738;2023-08-08T02:48:37;99585.38;;;41.44;33.04
9415;BME280;4746;35.664;139.738;2023-08-08T02:51:04;99587.31;;;41.57;32.91
9415;BME280;4746;35.664;139.738;2023-08-08T02:53:32;99591.31;;;41.74;32.60
9415;BME280;4746;35.664;139.738;2023-08-08T02:56:01;99597.22;;;41.90;32.08
9415;BME280;4746;35.664;139.738;2023-08-08T02:58:28;99593.13;;;42.00;31.87
9415;BME280;4746;35.664;139.738;2023-08-08T03:00:56;99593.97;;;42.20;31.88
9415;BME280;4746;35.664;139.738;2023-08-08T03:03:24;99592.34;;;42.32;31.11
9415;BME280;4746;35.664;139.738;2023-08-08T03:05:52;99591.97;;;42.48;31.39
9415;BME280;4746;35.664;139.738;2023-08-08T03:08:21;99583.47;;;42.51;31.47
9415;BME280;4746;35.664;139.738;2023-08-08T03:10:50;99590.31;;;42.54;31.53
9415;BME280;4746;35.664;139.738;2023-08-08T03:13:17;99588.03;;;42.57;31.35
9415;BME280;4746;35.664;139.738;2023-08-08T03:15:46;99585.13;;;42.65;30.64
9415;BME280;4746;35.664;139.738;2023-08-08T03:18:17;99587.22;;;42.76;31.26
9415;BME280;4746;35.664;139.738;2023-08-08T03:20:44;99580.78;;;42.77;31.29
9415;BME280;4746;35.664;139.738;2023-08-08T03:23:12;99576.63;;;42.81;31.68
9415;BME280;4746;35.664;139.738;2023-08-08T03:25:40;99576.59;;;42.87;31.39
9415;BME280;4746;35.664;139.738;2023-08-08T03:28:07;99568.94;;;42.97;31.75
9415;BME280;4746;35.664;139.738;2023-08-08T03:30:37;99574.13;;;43.12;31.58
9415;BME280;4746;35.664;139.738;2023-08-08T03:33:06;99571.81;;;43.22;31.38
9415;BME280;4746;35.664;139.738;2023-08-08T03:35:33;99575.53;;;43.21;30.74
9415;BME280;4746;35.664;139.738;2023-08-08T03:38:01;99570.16;;;43.08;31.88
9415;BME280;4746;35.664;139.738;2023-08-08T03:40:30;99564.56;;;42.96;31.19
9415;BME280;4746;35.664;139.738;2023-08-08T03:42:58;99566.66;;;42.88;31.88
9415;BME280;4746;35.664;139.738;2023-08-08T03:45:25;99563.78;;;42.83;31.53
9415;BME280;4746;35.664;139.738;2023-08-08T03:47:57;99557.31;;;42.84;31.36
9415;BME280;4746;35.664;139.738;2023-08-08T03:50:24;99567.91;;;42.79;31.90
9415;BME280;4746;35.664;139.738;2023-08-08T03:52:55;99562.31;;;42.74;31.29
9415;BME280;4746;35.664;139.738;2023-08-08T03:55:34;99552.38;;;42.74;31.29
9415;BME280;4746;35.664;139.738;2023-08-08T03:58:11;99564.63;;;42.77;30.99
9415;BME280;4746;35.664;139.738;2023-08-08T04:00:49;99557.53;;;42.82;30.57
9415;BME280;4746;35.664;139.738;2023-08-08T04:03:28;99554.59;;;42.97;30.25
9415;BME280;4746;35.664;139.738;2023-08-08T04:05:59;99554.59;;;43.10;29.88
9415;BME280;4746;35.664;139.738;2023-08-08T04:08:27;99561.44;;;43.19;29.65
9415;BME280;4746;35.664;139.738;2023-08-08T04:10:55;99561.38;;;43.32;30.27
9415;BME280;4746;35.664;139.738;2023-08-08T04:13:25;99551.78;;;43.48;29.66
9415;BME280;4746;35.664;139.738;2023-08-08T04:15:58;99561.84;;;43.72;30.10
9415;BME280;4746;35.664;139.738;2023-08-08T04:18:56;99547.94;;;44.13;29.53
9415;BME280;4746;35.664;139.738;2023-08-08T04:21:23;99550.19;;;44.22;29.24
9415;BME280;4746;35.664;139.738;2023-08-08T04:23:55;99545.25;;;44.37;29.13
9415;BME280;4746;35.664;139.738;2023-08-08T04:26:23;99545.25;;;44.37;28.54
9415;BME280;4746;35.664;139.738;2023-08-08T04:28:51;99540.56;;;44.50;28.36
9415;BME280;4746;35.664;139.738;2023-08-08T04:31:19;99545.22;;;44.68;28.69
9415;BME280;4746;35.664;139.738;2023-08-08T04:33:49;99546.22;;;44.73;28.71
9415;BME280;4746;35.664;139.738;2023-08-08T04:36:17;99541.25;;;44.70;28.49
9415;BME280;4746;35.664;139.738;2023-08-08T04:38:44;99550.56;;;44.74;28.77
9415;BME280;4746;35.664;139.738;2023-08-08T04:41:13;99546.94;;;44.87;28.37
9415;BME280;4746;35.664;139.738;2023-08-08T04:43:44;99540.03;;;45.08;28.20
9415;BME280;4746;35.664;139.738;2023-08-08T04:46:12;99544.59;;;45.32;28.07
9415;BME280;4746;35.664;139.738;2023-08-08T04:48:42;99542.47;;;45.52;27.83
9415;BME280;4746;35.664;139.738;2023-08-08T04:51:10;99535.38;;;45.69;27.41
9415;BME280;4746;35.664;139.738;2023-08-08T04:53:38;99549.44;;;45.77;27.39
9415;BME280;4746;35.664;139.738;2023-08-08T04:56:05;99542.81;;;45.73;27.42
9415;BME280;4746;35.664;139.738;2023-08-08T04:58:33;99538.75;;;45.64;28.16
9415;BME280;4746;35.664;139.738;2023-08-08T05:01:01;99534.34;;;45.70;28.19
9415;BME280;4746;35.664;139.738;2023-08-08T05:03:32;99530.84;;;45.81;28.13
9415;BME280;4746;35.664;139.738;2023-08-08T05:06:09;99534.88;;;45.90;27.56
9415;BME280;4746;35.664;139.738;2023-08-08T05:08:39;99537.25;;;45.98;27.73
9415;BME280;4746;35.664;139.738;2023-08-08T05:11:12;99532.53;;;46.23;27.08
9415;BME280;4746;35.664;139.738;2023-08-08T05:13:40;99543.38;;;46.34;27.52
9415;BME280;4746;35.664;139.738;2023-08-08T05:16:09;99538.19;;;46.33;27.29
9415;BME280;4746;35.664;139.738;2023-08-08T05:19:03;99536.63;;;46.14;27.93
9415;BME280;4746;35.664;139.738;2023-08-08T05:22:04;99545.88;;;45.77;28.90
9415;BME280;4746;35.664;139.738;2023-08-08T05:24:44;99534.00;;;45.31;28.72
9415;BME280;4746;35.664;139.738;2023-08-08T05:27:11;99555.16;;;44.74;29.70
9415;BME280;4746;35.664;139.738;2023-08-08T05:29:44;99549.94;;;44.23;30.87
9415;BME280;4746;35.664;139.738;2023-08-08T05:32:51;99555.81;;;43.77;31.72
9415;BME280;4746;35.664;139.738;2023-08-08T05:35:19;99555.59;;;43.22;32.32
9415;BME280;4746;35.664;139.738;2023-08-08T05:37:53;99552.56;;;42.86;32.69
9415;BME280;4746;35.664;139.738;2023-08-08T05:40:25;99559.84;;;42.66;33.04
9415;BME280;4746;35.664;139.738;2023-08-08T05:42:53;99550.47;;;42.49;34.09
9415;BME280;4746;35.664;139.738;2023-08-08T05:45:28;99548.00;;;42.28;33.96
9415;BME280;4746;35.664;139.738;2023-08-08T05:48:18;99549.81;;;41.96;34.66
9415;BME280;4746;35.664;139.738;2023-08-08T05:50:54;99545.00;;;41.97;34.45
9415;BME280;4746;35.664;139.738;2023-08-08T05:53:40;99555.56;;;41.93;35.05
9415;BME280;4746;35.664;139.738;2023-08-08T05:56:09;99551.63;;;41.89;34.71
9415;BME280;4746;35.664;139.738;2023-08-08T05:58:38;99544.78;;;41.86;35.21
9415;BME280;4746;35.664;139.738;2023-08-08T06:01:08;99545.22;;;41.90;34.88
9415;BME280;4746;35.664;139.738;2023-08-08T06:03:38;99542.72;;;41.88;35.21
9415;BME280;4746;35.664;139.738;2023-08-08T06:06:06;99550.63;;;41.96;35.41
9415;BME280;4746;35.664;139.738;2023-08-08T06:08:33;99553.72;;;41.99;34.66
9415;BME280;4746;35.664;139.738;2023-08-08T06:11:01;99563.06;;;42.03;34.86
9415;BME280;4746;35.664;139.738;2023-08-08T06:13:29;99558.56;;;42.43;34.46
9415;BME280;4746;35.664;139.738;2023-08-08T06:15:56;99557.72;;;42.55;34.63
9415;BME280;4746;35.664;139.738;2023-08-08T06:18:24;99557.09;;;42.92;33.58
9415;BME280;4746;35.664;139.738;2023-08-08T06:20:52;99554.16;;;44.13;32.07
9415;BME280;4746;35.664;139.738;2023-08-08T06:23:21;99554.16;;;44.13;32.10
9415;BME280;4746;35.664;139.738;2023-08-08T06:25:49;99542.28;;;43.83;32.62
9415;BME280;4746;35.664;139.738;2023-08-08T06:28:16;99556.31;;;43.61;32.64
9415;BME280;4746;35.664;139.738;2023-08-08T06:30:44;99549.13;;;43.36;33.09
9415;BME280;4746;35.664;139.738;2023-08-08T06:33:11;99553.75;;;43.16;33.23
9415;BME280;4746;35.664;139.738;2023-08-08T06:35:41;99553.28;;;43.32;33.29
9415;BME280;4746;35.664;139.738;2023-08-08T06:38:12;99551.63;;;43.31;32.88
9415;BME280;4746;35.664;139.738;2023-08-08T06:40:39;99560.22;;;43.71;33.09
9415;BME280;4746;35.664;139.738;2023-08-08T06:43:33;99559.47;;;46.47;30.25
9415;BME280;4746;35.664;139.738;2023-08-08T06:46:07;99550.63;;;47.20;28.23
9415;BME280;4746;35.664;139.738;2023-08-08T06:48:35;99562.88;;;46.42;28.91
9415;BME280;4746;35.664;139.738;2023-08-08T06:51:08;99574.38;;;45.68;30.18
9415;BME280;4746;35.664;139.738;2023-08-08T06:53:40;99569.53;;;46.69;29.40
9415;BME280;4746;35.664;139.738;2023-08-08T06:56:11;99570.16;;;46.01;28.89
9415;BME280;4746;35.664;139.738;2023-08-08T06:58:53;99579.06;;;44.77;30.41
9415;BME280;4746;35.664;139.738;2023-08-08T07:01:24;99588.84;;;43.85;32.05
9415;BME280;4746;35.664;139.738;2023-08-08T07:03:56;99589.63;;;43.92;31.51
9415;BME280;4746;35.664;139.738;2023-08-08T07:06:28;99594.00;;;43.30;32.16
9415;BME280;4746;35.664;139.738;2023-08-08T07:08:56;99598.22;;;42.68;33.12
9415;BME280;4746;35.664;139.738;2023-08-08T07:11:23;99598.19;;;42.29;33.98
9415;BME280;4746;35.664;139.738;2023-08-08T07:13:51;99591.03;;;41.96;34.58
9415;BME280;4746;35.664;139.738;2023-08-08T07:16:24;99601.78;;;41.90;34.88
9415;BME280;4746;35.664;139.738;2023-08-08T07:19:10;99603.75;;;41.75;35.13
9415;BME280;4746;35.664;139.738;2023-08-08T07:21:47;99610.22;;;41.46;35.37
9415;BME280;4746;35.664;139.738;2023-08-08T07:24:26;99599.31;;;41.14;35.96
9415;BME280;4746;35.664;139.738;2023-08-08T07:27:00;99604.28;;;41.17;36.23
9415;BME280;4746;35.664;139.738;2023-08-08T07:30:04;99605.88;;;41.12;35.80
9415;BME280;4746;35.664;139.738;2023-08-08T07:32:53;99607.28;;;40.80;36.36
9415;BME280;4746;35.664;139.738;2023-08-08T07:35:20;99611.91;;;40.45;37.25
9415;BME280;4746;35.664;139.738;2023-08-08T07:37:48;99610.63;;;40.41;37.43
9415;BME280;4746;35.664;139.738;2023-08-08T07:40:52;99608.28;;;40.73;36.89
9415;BME280;4746;35.664;139.738;2023-08-08T07:43:23;99624.09;;;40.61;36.86
9415;BME280;4746;35.664;139.738;2023-08-08T07:45:56;99615.66;;;40.44;37.43
9415;BME280;4746;35.664;139.738;2023-08-08T07:48:23;99607.16;;;40.26;37.96
9415;BME280;4746;35.664;139.738;2023-08-08T07:50:51;99603.69;;;40.11;38.08
9415;BME280;4746;35.664;139.738;2023-08-08T07:53:29;99616.72;;;39.93;38.31
9415;BME280;4746;35.664;139.738;2023-08-08T07:56:01;99619.50;;;39.85;39.17
9415;BME280;4746;35.664;139.738;2023-08-08T07:58:28;99620.31;;;40.00;38.35
9415;BME280;4746;35.664;139.738;2023-08-08T08:00:56;99606.63;;;40.16;38.42
9415;BME280;4746;35.664;139.738;2023-08-08T08:03:26;99617.41;;;40.57;38.17
9415;BME280;4746;35.664;139.738;2023-08-08T08:06:25;99622.13;;;40.70;37.50
9415;BME280;4746;35.664;139.738;2023-08-08T08:09:10;99614.91;;;40.56;37.59
9415;BME280;4746;35.664;139.738;2023-08-08T08:12:05;99625.50;;;40.37;37.56
9415;BME280;4746;35.664;139.738;2023-08-08T08:14:40;99641.28;;;40.11;38.65
9415;BME280;4746;35.664;139.738;2023-08-08T08:17:15;99636.25;;;39.87;39.21
9415;BME280;4746;35.664;139.738;2023-08-08T08:19:58;99637.41;;;39.64;39.07
9415;BME280;4746;35.664;139.738;2023-08-08T08:23:02;99633.75;;;39.42;39.45
9415;BME280;4746;35.664;139.738;2023-08-08T08:25:48;99636.91;;;39.31;39.79
9415;BME280;4746;35.664;139.738;2023-08-08T08:28:25;99631.91;;;39.28;39.74
9415;BME280;4746;35.664;139.738;2023-08-08T08:31:09;99631.81;;;39.36;40.14
9415;BME280;4746;35.664;139.738;2023-08-08T08:33:36;99629.66;;;40.39;38.89
9415;BME280;4746;35.664;139.738;2023-08-08T08:36:10;99624.66;;;42.26;36.63
9415;BME280;4746;35.664;139.738;2023-08-08T08:38:40;99630.16;;;43.92;34.43
9415;BME280;4746;35.664;139.738;2023-08-08T08:41:15;99633.19;;;45.61;31.86
9415;BME280;4746;35.664;139.738;2023-08-08T08:43:49;99638.50;;;47.14;30.51
9415;BME280;4746;35.664;139.738;2023-08-08T08:46:22;99639.78;;;48.36;28.67
9415;BME280;4746;35.664;139.738;2023-08-08T08:48:54;99630.44;;;49.09;26.78
9415;BME280;4746;35.664;139.738;2023-08-08T08:51:28;99641.56;;;49.24;26.31
9415;BME280;4746;35.664;139.738;2023-08-08T08:54:03;99647.59;;;49.63;25.80
9415;BME280;4746;35.664;139.738;2023-08-08T08:56:31;99645.13;;;49.62;25.68
9415;BME280;4746;35.664;139.738;2023-08-08T08:59:08;99641.72;;;49.01;26.27
9415;BME280;4746;35.664;139.738;2023-08-08T09:01:49;99641.34;;;47.92;26.66
9415;BME280;4746;35.664;139.738;2023-08-08T09:04:37;99653.38;;;47.23;27.70
9415;BME280;4746;35.664;139.738;2023-08-08T09:07:07;99649.56;;;47.01;28.20
9415;BME280;4746;35.664;139.738;2023-08-08T09:09:40;99652.16;;;46.15;28.64
9415;BME280;4746;35.664;139.738;2023-08-08T09:12:18;99660.75;;;45.16;30.10
9415;BME280;4746;35.664;139.738;2023-08-08T09:14:48;99666.91;;;44.00;31.60
9415;BME280;4746;35.664;139.738;2023-08-08T09:17:25;99671.66;;;42.89;33.39
9415;BME280;4746;35.664;139.738;2023-08-08T09:19:55;99675.88;;;42.19;34.55
9415;BME280;4746;35.664;139.738;2023-08-08T09:22:25;99675.28;;;41.50;35.53
9415;BME280;4746;35.664;139.738;2023-08-08T09:24:56;99671.38;;;40.98;36.50
9415;BME280;4746;35.664;139.738;2023-08-08T09:27:25;99678.53;;;40.49;37.61
9415;BME280;4746;35.664;139.738;2023-08-08T09:29:56;99684.06;;;40.12;38.25
9415;BME280;4746;35.664;139.738;2023-08-08T09:32:29;99691.69;;;39.80;38.18
9415;BME280;4746;35.664;139.738;2023-08-08T09:34:59;99690.56;;;39.31;39.23
9415;BME280;4746;35.664;139.738;2023-08-08T09:37:30;99688.59;;;38.89;40.56
9415;BME280;4746;35.664;139.738;2023-08-08T09:40:04;99698.03;;;38.62;41.13
9415;BME280;4746;35.664;139.738;2023-08-08T09:42:35;99687.50;;;38.30;41.51
9415;BME280;4746;35.664;139.738;2023-08-08T09:45:03;99698.97;;;38.09;42.16
9415;BME280;4746;35.664;139.738;2023-08-08T09:47:33;99690.72;;;37.88;42.56
9415;BME280;4746;35.664;139.738;2023-08-08T09:50:03;99704.66;;;37.67;43.51
9415;BME280;4746;35.664;139.738;2023-08-08T09:52:33;99705.38;;;37.46;44.23
9415;BME280;4746;35.664;139.738;2023-08-08T09:55:02;99710.41;;;37.25;44.42
9415;BME280;4746;35.664;139.738;2023-08-08T09:57:32;99707.94;;;37.07;45.16
9415;BME280;4746;35.664;139.738;2023-08-08T10:00:00;99706.41;;;36.89;45.21
9415;BME280;4746;35.664;139.738;2023-08-08T10:02:29;99722.44;;;36.81;44.88
9415;BME280;4746;35.664;139.738;2023-08-08T10:04:58;99715.72;;;36.77;45.54
9415;BME280;4746;35.664;139.738;2023-08-08T10:07:30;99716.91;;;36.75;45.61
9415;BME280;4746;35.664;139.738;2023-08-08T10:10:00;99722.91;;;36.61;46.30
9415;BME280;4746;35.664;139.738;2023-08-08T10:12:28;99736.75;;;36.56;46.52
9415;BME280;4746;35.664;139.738;2023-08-08T10:14:56;99739.41;;;36.48;46.65
9415;BME280;4746;35.664;139.738;2023-08-08T10:17:25;99737.56;;;36.41;47.05
9415;BME280;4746;35.664;139.738;2023-08-08T10:19:56;99747.41;;;36.40;47.01
9415;BME280;4746;35.664;139.738;2023-08-08T10:22:27;99752.22;;;36.37;47.26
9415;BME280;4746;35.664;139.738;2023-08-08T10:25:03;99750.50;;;36.28;48.35
9415;BME280;4746;35.664;139.738;2023-08-08T10:27:36;99766.50;;;36.20;48.28
9415;BME280;4746;35.664;139.738;2023-08-08T10:30:11;99763.47;;;36.15;48.34
9415;BME280;4746;35.664;139.738;2023-08-08T10:36:16;99775.56;;;35.94;49.05
9415;BME280;4746;35.664;139.738;2023-08-08T10:39:00;99774.16;;;35.90;49.63
9415;BME280;4746;35.664;139.738;2023-08-08T10:41:31;99773.44;;;35.80;50.31
9415;BME280;4746;35.664;139.738;2023-08-08T10:43:59;99769.22;;;35.69;50.99
9415;BME280;4746;35.664;139.738;2023-08-08T10:46:30;99778.38;;;35.67;50.64
9415;BME280;4746;35.664;139.738;2023-08-08T10:49:04;99792.03;;;35.64;51.16
9415;BME280;4746;35.664;139.738;2023-08-08T10:51:47;99789.50;;;35.62;51.59
9415;BME280;4746;35.664;139.738;2023-08-08T10:54:19;99806.28;;;35.55;51.53
9415;BME280;4746;35.664;139.738;2023-08-08T10:56:56;99796.59;;;35.54;51.51
9415;BME280;4746;35.664;139.738;2023-08-08T10:59:27;99805.22;;;35.48;52.18
9415;BME280;4746;35.664;139.738;2023-08-08T11:02:03;99807.06;;;35.47;51.43
9415;BME280;4746;35.664;139.738;2023-08-08T11:04:31;99814.25;;;35.47;51.88
9415;BME280;4746;35.664;139.738;2023-08-08T11:07:00;99815.06;;;35.47;50.68
9415;BME280;4746;35.664;139.738;2023-08-08T11:09:28;99812.84;;;35.43;51.21
9415;BME280;4746;35.664;139.738;2023-08-08T11:11:57;99828.81;;;35.43;50.78
9415;BME280;4746;35.664;139.738;2023-08-08T11:14:24;99827.16;;;35.42;50.64
9415;BME280;4746;35.664;139.738;2023-08-08T11:16:53;99831.66;;;35.41;50.51
9415;BME280;4746;35.664;139.738;2023-08-08T11:19:24;99829.00;;;35.41;50.71
9415;BME280;4746;35.664;139.738;2023-08-08T11:22:15;99831.50;;;35.43;50.75
9415;BME280;4746;35.664;139.738;2023-08-08T11:25:15;99840.97;;;35.37;50.46
9415;BME280;4746;35.664;139.738;2023-08-08T11:28:05;99839.03;;;35.30;50.69
9415;BME280;4746;35.664;139.738;2023-08-08T11:30:48;99855.66;;;35.24;51.59
9415;BME280;4746;35.664;139.738;2023-08-08T11:33:22;99851.53;;;35.12;51.85
9415;BME280;4746;35.664;139.738;2023-08-08T11:36:01;99859.75;;;35.01;52.32
9415;BME280;4746;35.664;139.738;2023-08-08T11:38:40;99859.56;;;34.85;52.49
9415;BME280;4746;35.664;139.738;2023-08-08T11:41:29;99860.72;;;34.83;52.78
9415;BME280;4746;35.664;139.738;2023-08-08T11:44:12;99854.84;;;34.79;52.96
9415;BME280;4746;35.664;139.738;2023-08-08T11:46:48;99856.84;;;34.95;52.86
9415;BME280;4746;35.664;139.738;2023-08-08T11:49:16;99865.59;;;34.87;53.32
9415;BME280;4746;35.664;139.738;2023-08-08T11:51:48;99862.66;;;34.81;53.22
9415;BME280;4746;35.664;139.738;2023-08-08T11:54:19;99860.31;;;34.78;53.58
9415;BME280;4746;35.664;139.738;2023-08-08T11:56:47;99859.63;;;34.76;53.71
9415;BME280;4746;35.664;139.738;2023-08-08T11:59:14;99863.81;;;34.78;54.47
9415;BME280;4746;35.664;139.738;2023-08-08T12:01:43;99859.34;;;34.79;54.37
9415;BME280;4746;35.664;139.738;2023-08-08T12:04:11;99853.31;;;34.77;53.94
9415;BME280;4746;35.664;139.738;2023-08-08T12:06:41;99861.16;;;34.78;54.23
9415;BME280;4746;35.664;139.738;2023-08-08T12:09:19;99850.06;;;34.83;54.45
9415;BME280;4746;35.664;139.738;2023-08-08T12:11:50;99866.47;;;34.78;54.08
9415;BME280;4746;35.664;139.738;2023-08-08T12:14:19;99850.13;;;34.73;54.14
9415;BME280;4746;35.664;139.738;2023-08-08T12:16:47;99861.75;;;34.72;54.88
9415;BME280;4746;35.664;139.738;2023-08-08T12:19:15;99859.09;;;34.72;54.48
9415;BME280;4746;35.664;139.738;2023-08-08T12:21:49;99862.72;;;34.71;54.10
9415;BME280;4746;35.664;139.738;2023-08-08T12:24:19;99855.88;;;34.69;54.76
9415;BME280;4746;35.664;139.738;2023-08-08T12:26:49;99866.16;;;34.64;54.46
9415;BME280;4746;35.664;139.738;2023-08-08T12:29:18;99872.31;;;34.64;54.56
9415;BME280;4746;35.664;139.738;2023-08-08T12:31:47;99865.16;;;34.65;54.91
9415;BME280;4746;35.664;139.738;2023-08-08T12:34:15;99867.00;;;34.64;55.18
9415;BME280;4746;35.664;139.738;2023-08-08T12:36:43;99864.47;;;34.63;55.08
9415;BME280;4746;35.664;139.738;2023-08-08T12:39:11;99867.81;;;34.65;55.00
9415;BME280;4746;35.664;139.738;2023-08-08T12:41:40;99862.81;;;34.62;55.33
9415;BME280;4746;35.664;139.738;2023-08-08T12:44:08;99861.13;;;34.61;55.83
9415;BME280;4746;35.664;139.738;2023-08-08T12:46:39;99873.31;;;34.63;55.78
9415;BME280;4746;35.664;139.738;2023-08-08T12:49:06;99875.13;;;34.63;55.74
9415;BME280;4746;35.664;139.738;2023-08-08T12:51:35;99868.97;;;34.63;55.52
9415;BME280;4746;35.664;139.738;2023-08-08T12:54:03;99868.97;;;34.63;55.43
9415;BME280;4746;35.664;139.738;2023-08-08T12:56:33;99867.97;;;34.63;55.41
9415;BME280;4746;35.664;139.738;2023-08-08T13:02:33;99858.09;;;34.73;55.23
9415;BME280;4746;35.664;139.738;2023-08-08T13:05:27;99855.44;;;34.73;55.57
9415;BME280;4746;35.664;139.738;2023-08-08T13:08:15;99851.09;;;34.72;55.91
9415;BME280;4746;35.664;139.738;2023-08-08T13:11:05;99860.06;;;34.71;56.19
9415;BME280;4746;35.664;139.738;2023-08-08T13:13:33;99860.06;;;34.71;55.84
9415;BME280;4746;35.664;139.738;2023-08-08T13:16:04;99866.41;;;34.70;56.00
9415;BME280;4746;35.664;139.738;2023-08-08T13:18:33;99870.34;;;34.66;56.77
9415;BME280;4746;35.664;139.738;2023-08-08T13:21:05;99855.06;;;34.68;57.03
9415;BME280;4746;35.664;139.738;2023-08-08T13:23:34;99879.63;;;34.63;56.87
9415;BME280;4746;35.664;139.738;2023-08-08T13:26:03;99876.56;;;34.58;57.39
9415;BME280;4746;35.664;139.738;2023-08-08T13:28:33;99876.72;;;34.56;57.64
9415;BME280;4746;35.664;139.738;2023-08-08T13:31:02;99882.16;;;34.55;58.06
9415;BME280;4746;35.664;139.738;2023-08-08T13:33:30;99876.84;;;34.55;58.13
9415;BME280;4746;35.664;139.738;2023-08-08T13:35:58;99880.53;;;34.54;58.54
9415;BME280;4746;35.664;139.738;2023-08-08T13:38:26;99876.19;;;34.53;58.16